createdAt,value
2018-11-21T00:00:40.980Z,1006.84
2018-11-21T00:01:40.962Z,1006.82
2018-11-21T00:02:40.983Z,1006.80
2018-11-21T00:03:40.939Z,1006.82
2018-11-21T00:04:40.974Z,1006.82
2018-11-21T00:05:40.912Z,1006.87
2018-11-21T00:06:40.902Z,1006.97
2018-11-21T00:07:40.895Z,1007.00
2018-11-21T00:08:40.881Z,1006.94
2018-11-21T00:09:40.909Z,1006.99
2018-11-21T00:10:40.860Z,1006.95
2018-11-21T00:11:40.853Z,1006.97
2018-11-21T00:12:40.836Z,1006.92
2018-11-21T00:13:40.837Z,1007.05
2018-11-21T00:14:40.845Z,1007.05
2018-11-21T00:15:40.805Z,1006.99
2018-11-21T00:16:40.798Z,1007.00
2018-11-21T00:17:40.785Z,1006.94
2018-11-21T00:18:40.811Z,1007.03
2018-11-21T00:19:40.761Z,1007.03
2018-11-21T00:20:40.757Z,1007.04
2018-11-21T00:21:40.745Z,1007.02
2018-11-21T00:22:40.760Z,1007.06
2018-11-21T00:23:40.714Z,1007.11
2018-11-21T00:24:40.712Z,1007.16
2018-11-21T00:25:40.693Z,1007.17
2018-11-21T00:26:40.730Z,1007.18
2018-11-21T00:27:40.673Z,1007.16
2018-11-21T00:28:40.672Z,1007.18
2018-11-21T00:29:40.770Z,1007.21
2018-11-21T00:30:40.647Z,1007.27
2018-11-21T00:31:40.631Z,1007.22
2018-11-21T00:32:40.624Z,1007.18
2018-11-21T00:33:40.612Z,1007.20
2018-11-21T00:34:40.643Z,1007.17
2018-11-21T00:35:40.587Z,1007.18
2018-11-21T00:36:40.631Z,1007.24
2018-11-21T00:37:40.605Z,1007.23
2018-11-21T00:38:40.555Z,1007.22
2018-11-21T00:39:40.548Z,1007.23
2018-11-21T00:40:40.561Z,1007.32
2018-11-21T00:41:40.565Z,1007.32
2018-11-21T00:42:46.426Z,1007.28
2018-11-21T00:43:41.533Z,1007.27
2018-11-21T00:44:40.490Z,1007.28
2018-11-21T00:45:40.530Z,1007.24
2018-11-21T00:46:40.468Z,1007.21
2018-11-21T00:47:40.491Z,1007.20
2018-11-21T00:48:40.441Z,1007.36
2018-11-21T00:49:40.431Z,1007.33
2018-11-21T00:50:40.423Z,1007.29
2018-11-21T00:51:40.411Z,1007.31
2018-11-21T00:52:40.436Z,1007.31
2018-11-21T00:53:40.449Z,1007.27
2018-11-21T00:54:40.407Z,1007.27
2018-11-21T00:55:40.373Z,1007.28
2018-11-21T00:56:40.394Z,1007.30
2018-11-21T00:57:40.382Z,1007.38
2018-11-21T00:58:40.371Z,1007.33
2018-11-21T00:59:40.326Z,1007.38
2018-11-21T01:00:40.343Z,1007.41
2018-11-21T01:01:40.301Z,1007.37
2018-11-21T01:02:40.299Z,1007.36
2018-11-21T01:03:40.283Z,1007.42
2018-11-21T01:04:40.316Z,1007.44
2018-11-21T01:05:40.266Z,1007.52
2018-11-21T01:06:40.249Z,1007.53
2018-11-21T01:07:40.245Z,1007.54
2018-11-21T01:08:40.225Z,1007.60
2018-11-21T01:09:40.280Z,1007.64
2018-11-21T01:10:40.213Z,1007.67
2018-11-21T01:11:40.192Z,1007.69
2018-11-21T01:12:40.183Z,1007.67
2018-11-21T01:13:40.175Z,1007.69
2018-11-21T01:14:40.242Z,1007.70
2018-11-21T01:15:40.152Z,1007.67
2018-11-21T01:16:40.139Z,1007.67
2018-11-21T01:17:40.173Z,1007.66
2018-11-21T01:18:40.117Z,1007.64
2018-11-21T01:19:40.106Z,1007.70
2018-11-21T01:20:40.096Z,1007.65
2018-11-21T01:21:40.087Z,1007.72
2018-11-21T01:22:40.104Z,1007.72
2018-11-21T01:23:40.061Z,1007.64
2018-11-21T01:24:40.050Z,1007.65
2018-11-21T01:25:47.137Z,1007.64
2018-11-21T01:26:40.029Z,1007.63
2018-11-21T01:27:40.020Z,1007.60
2018-11-21T01:28:40.043Z,1007.65
2018-11-21T01:29:40.002Z,1007.66
2018-11-21T01:30:39.988Z,1007.68
2018-11-21T01:31:39.974Z,1007.61
2018-11-21T01:32:39.997Z,1007.70
2018-11-21T01:33:39.959Z,1007.70
2018-11-21T01:34:40.774Z,1007.70
2018-11-21T01:35:39.966Z,1007.73
2018-11-21T01:36:39.925Z,1007.74
2018-11-21T01:37:39.919Z,1007.81
2018-11-21T01:38:39.903Z,1007.85
2018-11-21T01:39:39.928Z,1007.85
2018-11-21T01:40:39.881Z,1007.85
2018-11-21T01:41:39.871Z,1007.82
2018-11-21T01:42:39.854Z,1007.77
2018-11-21T01:43:39.897Z,1007.79
2018-11-21T01:44:39.836Z,1007.82
2018-11-21T01:45:39.867Z,1007.89
2018-11-21T01:46:39.816Z,1007.80
2018-11-21T01:47:39.802Z,1007.79
2018-11-21T01:48:39.789Z,1007.84
2018-11-21T01:49:39.802Z,1007.90
2018-11-21T01:50:39.799Z,1007.88
2018-11-21T01:51:39.767Z,1007.82
2018-11-21T01:52:39.750Z,1007.78
2018-11-21T01:53:39.753Z,1007.77
2018-11-21T01:54:39.737Z,1007.81
2018-11-21T01:55:39.771Z,1007.80
2018-11-21T01:56:39.723Z,1007.76
2018-11-21T01:57:39.700Z,1007.81
2018-11-21T01:58:39.686Z,1007.83
2018-11-21T01:59:39.702Z,1007.84
2018-11-21T02:00:39.664Z,1007.86
2018-11-21T02:01:39.664Z,1007.95
2018-11-21T02:02:39.643Z,1007.96
2018-11-21T02:03:39.654Z,1007.99
2018-11-21T02:04:39.646Z,1008.02
2018-11-21T02:05:39.647Z,1007.96
2018-11-21T02:06:39.652Z,1008.00
2018-11-21T02:07:39.594Z,1007.95
2018-11-21T02:08:39.584Z,1007.98
2018-11-21T02:09:39.568Z,1008.03
2018-11-21T02:10:39.566Z,1008.12
2018-11-21T02:11:39.575Z,1008.11
2018-11-21T02:12:39.531Z,1008.14
2018-11-21T02:13:39.575Z,1008.10
2018-11-21T02:14:39.514Z,1008.10
2018-11-21T02:15:39.504Z,1008.13
2018-11-21T02:16:39.535Z,1008.10
2018-11-21T02:17:39.477Z,1008.13
2018-11-21T02:18:39.470Z,1008.23
2018-11-21T02:19:39.459Z,1008.19
2018-11-21T02:20:39.449Z,1008.13
2018-11-21T02:21:39.482Z,1008.18
2018-11-21T02:22:39.458Z,1008.11
2018-11-21T02:23:39.413Z,1008.17
2018-11-21T02:24:39.410Z,1008.18
2018-11-21T02:25:39.424Z,1008.20
2018-11-21T02:26:39.383Z,1008.17
2018-11-21T02:27:39.367Z,1008.20
2018-11-21T02:28:39.363Z,1008.23
2018-11-21T02:29:39.407Z,1008.28
2018-11-21T02:30:39.338Z,1008.26
2018-11-21T02:31:39.338Z,1008.27
2018-11-21T02:32:39.332Z,1008.31
2018-11-21T02:33:39.305Z,1008.32
2018-11-21T02:34:39.318Z,1008.32
2018-11-21T02:35:39.333Z,1008.36
2018-11-21T02:36:39.275Z,1008.29
2018-11-21T02:37:39.285Z,1008.32
2018-11-21T02:38:39.308Z,1008.31
2018-11-21T02:39:39.240Z,1008.28
2018-11-21T02:40:39.235Z,1008.33
2018-11-21T02:41:39.224Z,1008.38
2018-11-21T02:42:39.211Z,1008.38
2018-11-21T02:43:39.236Z,1008.42
2018-11-21T02:44:39.228Z,1008.37
2018-11-21T02:45:39.199Z,1008.41
2018-11-21T02:46:39.163Z,1008.39
2018-11-21T02:47:39.161Z,1008.49
2018-11-21T02:48:39.195Z,1008.48
2018-11-21T02:49:39.134Z,1008.44
2018-11-21T02:50:39.153Z,1008.47
2018-11-21T02:51:39.115Z,1008.52
2018-11-21T02:52:39.098Z,1008.55
2018-11-21T02:53:39.093Z,1008.50
2018-11-21T02:54:39.081Z,1008.54
2018-11-21T02:55:39.107Z,1008.51
2018-11-21T02:56:39.059Z,1008.54
2018-11-21T02:57:39.042Z,1008.54
2018-11-21T02:58:39.038Z,1008.62
2018-11-21T02:59:39.028Z,1008.54
2018-11-21T03:00:39.060Z,1008.52
2018-11-21T03:01:39.031Z,1008.50
2018-11-21T03:02:39.032Z,1008.55
2018-11-21T03:03:39.050Z,1008.52
2018-11-21T03:04:38.991Z,1008.64
2018-11-21T03:05:38.965Z,1008.61
2018-11-21T03:06:39.023Z,1008.64
2018-11-21T03:07:38.982Z,1008.68
2018-11-21T03:08:39.003Z,1008.69
2018-11-21T03:09:38.917Z,1008.70
2018-11-21T03:10:38.964Z,1008.80
2018-11-21T03:11:38.945Z,1008.68
2018-11-21T03:12:38.906Z,1008.72
2018-11-21T03:13:38.908Z,1008.84
2018-11-21T03:14:38.918Z,1008.84
2018-11-21T03:15:38.909Z,1008.84
2018-11-21T03:16:38.927Z,1008.83
2018-11-21T03:17:38.842Z,1008.89
2018-11-21T03:18:38.826Z,1008.90
2018-11-21T03:19:38.808Z,1008.91
2018-11-21T03:20:38.901Z,1008.95
2018-11-21T03:21:38.788Z,1008.93
2018-11-21T03:22:38.839Z,1008.95
2018-11-21T03:23:38.787Z,1008.97
2018-11-21T03:24:38.770Z,1008.96
2018-11-21T03:25:38.835Z,1008.95
2018-11-21T03:26:38.749Z,1009.05
2018-11-21T03:27:38.724Z,1009.03
2018-11-21T03:28:38.707Z,1009.05
2018-11-21T03:29:38.781Z,1009.03
2018-11-21T03:30:38.722Z,1009.04
2018-11-21T03:31:38.682Z,1009.04
2018-11-21T03:32:38.669Z,1009.03
2018-11-21T03:33:38.686Z,1009.07
2018-11-21T03:34:38.643Z,1009.11
2018-11-21T03:35:38.671Z,1009.12
2018-11-21T03:36:38.627Z,1009.18
2018-11-21T03:37:38.618Z,1009.22
2018-11-21T03:38:38.621Z,1009.18
2018-11-21T03:39:38.632Z,1009.13
2018-11-21T03:40:38.583Z,1009.11
2018-11-21T03:41:38.591Z,1009.05
2018-11-21T03:42:38.556Z,1009.00
2018-11-21T03:43:38.556Z,1009.06
2018-11-21T03:44:38.584Z,1009.09
2018-11-21T03:45:38.528Z,1009.09
2018-11-21T03:46:38.531Z,1009.19
2018-11-21T03:47:38.510Z,1009.13
2018-11-21T03:48:38.551Z,1009.18
2018-11-21T03:49:38.484Z,1009.17
2018-11-21T03:50:38.471Z,1009.22
2018-11-21T03:51:38.516Z,1009.24
2018-11-21T03:52:38.497Z,1009.24
2018-11-21T03:53:38.455Z,1009.28
2018-11-21T03:54:38.425Z,1009.31
2018-11-21T03:55:38.423Z,1009.33
2018-11-21T03:56:38.441Z,1009.24
2018-11-21T03:57:38.485Z,1009.24
2018-11-21T03:58:38.385Z,1009.28
2018-11-21T03:59:38.378Z,1009.23
2018-11-21T04:00:38.370Z,1009.28
2018-11-21T04:01:38.420Z,1009.34
2018-11-21T04:02:38.392Z,1009.33
2018-11-21T04:03:38.335Z,1009.28
2018-11-21T04:04:38.323Z,1009.21
2018-11-21T04:05:38.316Z,1009.23
2018-11-21T04:06:38.297Z,1009.21
2018-11-21T04:07:38.317Z,1009.23
2018-11-21T04:08:42.540Z,1009.27
2018-11-21T04:09:38.278Z,1009.28
2018-11-21T04:10:38.254Z,1009.29
2018-11-21T04:11:38.242Z,1009.30
2018-11-21T04:12:38.262Z,1009.30
2018-11-21T04:13:38.224Z,1009.38
2018-11-21T04:14:38.246Z,1009.33
2018-11-21T04:15:38.198Z,1009.26
2018-11-21T04:16:38.193Z,1009.30
2018-11-21T04:17:38.179Z,1009.28
2018-11-21T04:18:38.287Z,1009.30
2018-11-21T04:19:38.160Z,1009.34
2018-11-21T04:20:38.147Z,1009.35
2018-11-21T04:21:38.137Z,1009.38
2018-11-21T04:22:38.127Z,1009.48
2018-11-21T04:23:38.318Z,1009.47
2018-11-21T04:24:38.106Z,1009.49
2018-11-21T04:25:38.098Z,1009.46
2018-11-21T04:26:38.084Z,1009.50
2018-11-21T04:27:38.071Z,1009.50
2018-11-21T04:28:38.211Z,1009.45
2018-11-21T04:29:38.091Z,1009.46
2018-11-21T04:30:38.037Z,1009.49
2018-11-21T04:31:38.029Z,1009.50
2018-11-21T04:32:38.021Z,1009.48
2018-11-21T04:33:38.143Z,1009.63
2018-11-21T04:34:38.764Z,1009.66
2018-11-21T04:35:37.996Z,1009.71
2018-11-21T04:36:37.974Z,1009.79
2018-11-21T04:37:37.974Z,1009.77
2018-11-21T04:38:37.956Z,1009.73
2018-11-21T04:39:37.994Z,1009.77
2018-11-21T04:40:37.927Z,1009.80
2018-11-21T04:41:37.921Z,1009.82
2018-11-21T04:42:37.906Z,1009.86
2018-11-21T04:43:37.959Z,1009.86
2018-11-21T04:44:37.887Z,1009.91
2018-11-21T04:45:37.876Z,1009.98
2018-11-21T04:46:37.870Z,1009.96
2018-11-21T04:47:37.851Z,1009.98
2018-11-21T04:48:38.239Z,1009.88
2018-11-21T04:49:37.833Z,1009.88
2018-11-21T04:50:37.945Z,1009.80
2018-11-21T04:51:37.810Z,1009.68
2018-11-21T04:52:37.799Z,1009.71
2018-11-21T04:53:37.825Z,1009.73
2018-11-21T04:54:37.777Z,1009.73
2018-11-21T04:55:37.873Z,1009.77
2018-11-21T04:56:37.848Z,1009.79
2018-11-21T04:57:37.747Z,1009.83
2018-11-21T04:58:37.768Z,1009.85
2018-11-21T04:59:37.728Z,1009.86
2018-11-21T05:00:37.717Z,1009.82
2018-11-21T05:01:37.759Z,1009.78
2018-11-21T05:02:37.696Z,1009.87
2018-11-21T05:03:37.681Z,1009.95
2018-11-21T05:04:37.669Z,1009.99
2018-11-21T05:05:37.780Z,1010.07
2018-11-21T05:06:37.661Z,1010.15
2018-11-21T05:07:37.642Z,1010.04
2018-11-21T05:08:37.744Z,1010.14
2018-11-21T05:09:37.611Z,1010.17
2018-11-21T05:10:37.602Z,1010.13
2018-11-21T05:11:37.593Z,1010.11
2018-11-21T05:12:37.623Z,1010.21
2018-11-21T05:13:37.570Z,1010.11
2018-11-21T05:14:37.790Z,1010.16
2018-11-21T05:15:37.549Z,1010.10
2018-11-21T05:16:37.539Z,1010.10
2018-11-21T05:17:37.648Z,1010.12
2018-11-21T05:18:37.518Z,1010.12
2018-11-21T05:19:37.506Z,1010.21
2018-11-21T05:20:37.493Z,1010.21
2018-11-21T05:21:37.492Z,1010.25
2018-11-21T05:22:37.507Z,1010.28
2018-11-21T05:23:37.465Z,1010.30
2018-11-21T05:24:37.458Z,1010.24
2018-11-21T05:25:37.447Z,1010.33
2018-11-21T05:26:37.433Z,1010.33
2018-11-21T05:27:37.455Z,1010.33
2018-11-21T05:28:37.409Z,1010.41
2018-11-21T05:29:37.407Z,1010.33
2018-11-21T05:30:37.393Z,1010.41
2018-11-21T05:31:37.380Z,1010.43
2018-11-21T05:32:37.431Z,1010.43
2018-11-21T05:33:37.401Z,1010.47
2018-11-21T05:34:37.362Z,1010.41
2018-11-21T05:35:37.336Z,1010.48
2018-11-21T05:36:37.327Z,1010.47
2018-11-21T05:37:37.351Z,1010.44
2018-11-21T05:38:37.298Z,1010.41
2018-11-21T05:39:37.347Z,1010.45
2018-11-21T05:40:37.285Z,1010.41
2018-11-21T05:41:37.301Z,1010.33
2018-11-21T05:42:37.263Z,1010.38
2018-11-21T05:43:37.245Z,1010.34
2018-11-21T05:44:37.234Z,1010.43
2018-11-21T05:45:37.280Z,1010.40
2018-11-21T05:46:37.240Z,1010.42
2018-11-21T05:47:37.205Z,1010.42
2018-11-21T05:48:37.197Z,1010.44
2018-11-21T05:49:37.190Z,1010.38
2018-11-21T05:50:37.179Z,1010.39
2018-11-21T05:51:37.204Z,1010.36
2018-11-21T05:52:37.155Z,1010.36
2018-11-21T05:53:37.139Z,1010.40
2018-11-21T05:54:37.215Z,1010.48
2018-11-21T05:55:37.124Z,1010.38
2018-11-21T05:56:38.420Z,1010.37
2018-11-21T05:57:37.120Z,1010.32
2018-11-21T05:58:37.086Z,1010.27
2018-11-21T05:59:37.075Z,1010.27
2018-11-21T06:00:37.062Z,1010.32
2018-11-21T06:01:37.154Z,1010.30
2018-11-21T06:02:37.040Z,1010.36
2018-11-21T06:03:37.028Z,1010.42
2018-11-21T06:04:37.024Z,1010.42
2018-11-21T06:05:37.041Z,1010.42
2018-11-21T06:06:37.005Z,1010.41
2018-11-21T06:07:36.984Z,1010.40
2018-11-21T06:08:36.974Z,1010.43
2018-11-21T06:09:36.968Z,1010.46
2018-11-21T06:10:37.003Z,1010.50
2018-11-21T06:11:36.945Z,1010.60
2018-11-21T06:12:36.946Z,1010.58
2018-11-21T06:13:36.940Z,1010.64
2018-11-21T06:14:36.952Z,1010.64
2018-11-21T06:15:36.941Z,1010.59
2018-11-21T06:16:36.891Z,1010.58
2018-11-21T06:17:36.888Z,1010.56
2018-11-21T06:18:36.895Z,1010.57
2018-11-21T06:19:36.858Z,1010.58
2018-11-21T06:20:36.884Z,1010.68
2018-11-21T06:21:36.835Z,1010.64
2018-11-21T06:22:36.832Z,1010.68
2018-11-21T06:23:36.817Z,1010.70
2018-11-21T06:24:36.801Z,1010.73
2018-11-21T06:25:36.832Z,1010.75
2018-11-21T06:26:36.782Z,1010.75
2018-11-21T06:27:36.773Z,1010.73
2018-11-21T06:28:36.757Z,1010.73
2018-11-21T06:29:36.758Z,1010.74
2018-11-21T06:30:36.769Z,1010.80
2018-11-21T06:31:36.756Z,1010.73
2018-11-21T06:32:36.741Z,1010.80
2018-11-21T06:33:36.711Z,1010.79
2018-11-21T06:34:36.697Z,1010.82
2018-11-21T06:35:36.686Z,1010.86
2018-11-21T06:36:36.713Z,1010.84
2018-11-21T06:37:36.724Z,1010.88
2018-11-21T06:38:36.656Z,1010.89
2018-11-21T06:39:36.647Z,1010.92
2018-11-21T06:40:36.672Z,1010.91
2018-11-21T06:41:36.615Z,1010.90
2018-11-21T06:42:36.606Z,1010.99
2018-11-21T06:43:36.596Z,1010.97
2018-11-21T06:44:36.584Z,1011.07
2018-11-21T06:45:36.620Z,1011.00
2018-11-21T06:46:36.565Z,1011.00
2018-11-21T06:47:36.556Z,1010.99
2018-11-21T06:48:36.548Z,1011.02
2018-11-21T06:49:36.554Z,1011.07
2018-11-21T06:50:36.564Z,1011.06
2018-11-21T06:51:36.510Z,1011.12
2018-11-21T06:52:36.511Z,1011.10
2018-11-21T06:53:36.558Z,1011.15
2018-11-21T06:54:36.479Z,1011.14
2018-11-21T06:55:36.552Z,1011.13
2018-11-21T06:56:36.455Z,1011.17
2018-11-21T06:57:36.447Z,1011.21
2018-11-21T06:58:36.433Z,1011.21
2018-11-21T06:59:36.419Z,1011.21
2018-11-21T07:00:36.445Z,1011.21
2018-11-21T07:01:36.443Z,1011.21
2018-11-21T07:02:36.397Z,1011.27
2018-11-21T07:03:36.423Z,1011.26
2018-11-21T07:04:36.365Z,1011.27
2018-11-21T07:05:36.357Z,1011.27
2018-11-21T07:06:36.349Z,1011.28
2018-11-21T07:07:36.459Z,1011.21
2018-11-21T07:08:36.323Z,1011.26
2018-11-21T07:09:36.364Z,1011.31
2018-11-21T07:10:36.305Z,1011.30
2018-11-21T07:11:36.294Z,1011.27
2018-11-21T07:12:36.332Z,1011.23
2018-11-21T07:13:36.271Z,1011.30
2018-11-21T07:14:36.263Z,1011.25
2018-11-21T07:15:36.442Z,1011.33
2018-11-21T07:16:43.561Z,1011.27
2018-11-21T07:17:36.225Z,1011.27
2018-11-21T07:18:36.297Z,1011.35
2018-11-21T07:19:36.206Z,1011.28
2018-11-21T07:20:36.344Z,1011.27
2018-11-21T07:21:36.186Z,1011.29
2018-11-21T07:22:36.176Z,1011.37
2018-11-21T07:23:36.166Z,1011.46
2018-11-21T07:24:44.239Z,1011.47
2018-11-21T07:25:36.205Z,1011.46
2018-11-21T07:26:36.130Z,1011.54
2018-11-21T07:27:36.117Z,1011.53
2018-11-21T07:28:36.105Z,1011.57
2018-11-21T07:29:36.094Z,1011.58
2018-11-21T07:30:36.271Z,1011.63
2018-11-21T07:31:36.071Z,1011.63
2018-11-21T07:32:36.062Z,1011.62
2018-11-21T07:33:36.822Z,1011.66
2018-11-21T07:34:36.042Z,1011.66
2018-11-21T07:35:36.072Z,1011.69
2018-11-21T07:36:36.023Z,1011.67
2018-11-21T07:37:36.006Z,1011.67
2018-11-21T07:38:35.999Z,1011.69
2018-11-21T07:39:36.028Z,1011.74
2018-11-21T07:40:35.976Z,1011.82
2018-11-21T07:41:35.966Z,1011.85
2018-11-21T07:42:35.955Z,1011.82
2018-11-21T07:43:35.972Z,1011.82
2018-11-21T07:44:35.976Z,1011.86
2018-11-21T07:45:35.927Z,1011.89
2018-11-21T07:46:35.914Z,1011.84
2018-11-21T07:47:35.897Z,1011.86
2018-11-21T07:48:35.925Z,1011.88
2018-11-21T07:49:35.954Z,1011.83
2018-11-21T07:50:35.872Z,1011.82
2018-11-21T07:51:35.858Z,1011.83
2018-11-21T07:52:35.858Z,1011.93
2018-11-21T07:53:35.866Z,1011.80
2018-11-21T07:54:35.830Z,1011.87
2018-11-21T07:55:35.816Z,1011.87
2018-11-21T07:56:35.804Z,1011.87
2018-11-21T07:57:35.797Z,1011.85
2018-11-21T07:58:35.824Z,1011.92
2018-11-21T07:59:35.782Z,1011.91
2018-11-21T08:00:35.775Z,1011.96
2018-11-21T08:01:35.793Z,1011.91
2018-11-21T08:02:35.740Z,1011.94
2018-11-21T08:03:35.734Z,1011.90
2018-11-21T08:04:35.742Z,1011.88
2018-11-21T08:05:35.706Z,1011.83
2018-11-21T08:06:35.713Z,1011.82
2018-11-21T08:07:35.721Z,1011.88
2018-11-21T08:08:35.686Z,1011.89
2018-11-21T08:09:35.658Z,1011.87
2018-11-21T08:10:35.653Z,1011.92
2018-11-21T08:11:35.640Z,1011.93
2018-11-21T08:12:35.660Z,1012.00
2018-11-21T08:13:35.616Z,1012.03
2018-11-21T08:14:35.626Z,1012.01
2018-11-21T08:15:35.602Z,1012.05
2018-11-21T08:16:35.676Z,1012.11
2018-11-21T08:17:35.576Z,1012.08
2018-11-21T08:18:35.568Z,1012.02
2018-11-21T08:19:35.563Z,1012.08
2018-11-21T08:20:35.540Z,1012.10
2018-11-21T08:21:35.565Z,1012.12
2018-11-21T08:22:35.521Z,1012.17
2018-11-21T08:23:35.511Z,1012.18
2018-11-21T08:24:35.503Z,1012.21
2018-11-21T08:25:35.487Z,1012.22
2018-11-21T08:26:35.506Z,1012.31
2018-11-21T08:27:35.468Z,1012.19
2018-11-21T08:28:35.469Z,1012.32
2018-11-21T08:29:35.445Z,1012.24
2018-11-21T08:30:35.434Z,1012.25
2018-11-21T08:31:35.452Z,1012.26
2018-11-21T08:32:35.410Z,1012.30
2018-11-21T08:33:35.405Z,1012.27
2018-11-21T08:34:35.394Z,1012.24
2018-11-21T08:35:35.446Z,1012.23
2018-11-21T08:36:35.368Z,1012.32
2018-11-21T08:37:35.388Z,1012.34
2018-11-21T08:38:35.347Z,1012.27
2018-11-21T08:39:35.337Z,1012.38
2018-11-21T08:40:35.361Z,1012.37
2018-11-21T08:41:35.318Z,1012.36
2018-11-21T08:42:35.306Z,1012.33
2018-11-21T08:43:35.325Z,1012.39
2018-11-21T08:44:35.283Z,1012.38
2018-11-21T08:45:35.275Z,1012.35
2018-11-21T08:46:35.912Z,1012.35
2018-11-21T08:47:35.258Z,1012.38
2018-11-21T08:48:35.298Z,1012.42
2018-11-21T08:49:35.232Z,1012.37
2018-11-21T08:50:35.218Z,1012.39
2018-11-21T08:51:35.203Z,1012.42
2018-11-21T08:52:35.198Z,1012.42
2018-11-21T08:53:35.208Z,1012.39
2018-11-21T08:54:35.172Z,1012.35
2018-11-21T08:55:35.162Z,1012.40
2018-11-21T08:56:35.200Z,1012.41
2018-11-21T08:57:35.142Z,1012.41
2018-11-21T08:58:35.131Z,1012.42
2018-11-21T08:59:35.123Z,1012.49
2018-11-21T09:00:35.112Z,1012.41
2018-11-21T09:01:35.255Z,1012.33
2018-11-21T09:02:35.090Z,1012.31
2018-11-21T09:03:35.118Z,1012.37
2018-11-21T09:04:35.066Z,1012.39
2018-11-21T09:05:35.053Z,1012.43
2018-11-21T09:06:35.058Z,1012.46
2018-11-21T09:07:35.033Z,1012.45
2018-11-21T09:08:35.065Z,1012.53
2018-11-21T09:09:35.016Z,1012.44
2018-11-21T09:10:36.044Z,1012.42
2018-11-21T09:11:34.989Z,1012.50
2018-11-21T09:12:35.027Z,1012.52
2018-11-21T09:13:35.022Z,1012.61
2018-11-21T09:14:34.952Z,1012.57
2018-11-21T09:15:34.948Z,1012.54
2018-11-21T09:16:34.937Z,1012.56
2018-11-21T09:17:34.947Z,1012.62
2018-11-21T09:18:34.918Z,1012.67
2018-11-21T09:19:34.936Z,1012.65
2018-11-21T09:20:34.890Z,1012.64
2018-11-21T09:21:34.884Z,1012.68
2018-11-21T09:22:34.867Z,1012.71
2018-11-21T09:23:34.886Z,1012.70
2018-11-21T09:24:34.847Z,1012.69
2018-11-21T09:25:34.878Z,1012.72
2018-11-21T09:26:34.828Z,1012.74
2018-11-21T09:27:34.820Z,1012.79
2018-11-21T09:28:34.876Z,1012.79
2018-11-21T09:29:34.789Z,1012.87
2018-11-21T09:30:34.826Z,1012.85
2018-11-21T09:31:34.769Z,1012.91
2018-11-21T09:32:34.807Z,1012.85
2018-11-21T09:33:34.749Z,1012.88
2018-11-21T09:34:34.771Z,1012.92
2018-11-21T09:35:34.730Z,1012.90
2018-11-21T09:36:34.742Z,1012.97
2018-11-21T09:37:34.703Z,1012.86
2018-11-21T09:38:34.698Z,1012.96
2018-11-21T09:39:34.700Z,1013.00
2018-11-21T09:40:34.688Z,1012.90
2018-11-21T09:41:34.684Z,1012.93
2018-11-21T09:42:34.656Z,1012.93
2018-11-21T09:43:34.672Z,1012.96
2018-11-21T09:44:34.626Z,1012.95
2018-11-21T09:45:34.621Z,1012.94
2018-11-21T09:46:34.612Z,1012.96
2018-11-21T09:47:34.597Z,1013.01
2018-11-21T09:48:34.612Z,1013.00
2018-11-21T09:49:34.572Z,1012.94
2018-11-21T09:50:34.569Z,1013.01
2018-11-21T09:51:34.553Z,1012.98
2018-11-21T09:52:34.666Z,1013.07
2018-11-21T09:53:34.533Z,1013.09
2018-11-21T09:54:34.521Z,1013.11
2018-11-21T09:55:34.512Z,1013.21
2018-11-21T09:56:34.546Z,1013.19
2018-11-21T09:57:34.544Z,1013.23
2018-11-21T09:58:34.484Z,1013.18
2018-11-21T09:59:34.473Z,1013.26
2018-11-21T10:00:34.457Z,1013.37
2018-11-21T10:01:34.483Z,1013.34
2018-11-21T10:02:34.434Z,1013.37
2018-11-21T10:03:34.457Z,1013.39
2018-11-21T10:04:34.452Z,1013.30
2018-11-21T10:05:34.408Z,1013.31
2018-11-21T10:06:34.392Z,1013.27
2018-11-21T10:07:34.374Z,1013.30
2018-11-21T10:08:34.387Z,1013.28
2018-11-21T10:09:34.386Z,1013.27
2018-11-21T10:10:34.399Z,1013.28
2018-11-21T10:11:34.336Z,1013.29
2018-11-21T10:12:34.401Z,1013.26
2018-11-21T10:13:34.369Z,1013.34
2018-11-21T10:14:34.355Z,1013.27
2018-11-21T10:15:34.325Z,1013.30
2018-11-21T10:16:34.278Z,1013.28
2018-11-21T10:17:34.287Z,1013.32
2018-11-21T10:18:34.265Z,1013.25
2018-11-21T10:19:34.276Z,1013.38
2018-11-21T10:20:34.269Z,1013.39
2018-11-21T10:21:34.224Z,1013.37
2018-11-21T10:22:34.212Z,1013.36
2018-11-21T10:23:34.199Z,1013.35
2018-11-21T10:24:34.308Z,1013.33
2018-11-21T10:25:34.216Z,1013.32
2018-11-21T10:26:34.170Z,1013.36
2018-11-21T10:27:34.164Z,1013.33
2018-11-21T10:28:34.148Z,1013.34
2018-11-21T10:29:34.150Z,1013.32
2018-11-21T10:30:34.185Z,1013.34
2018-11-21T10:31:34.218Z,1013.33
2018-11-21T10:32:34.219Z,1013.34
2018-11-21T10:33:34.097Z,1013.37
2018-11-21T10:34:34.140Z,1013.36
2018-11-21T10:35:36.039Z,1013.29
2018-11-21T10:36:34.066Z,1013.18
2018-11-21T10:37:34.050Z,1013.20
2018-11-21T10:38:34.074Z,1013.11
2018-11-21T10:39:34.028Z,1013.14
2018-11-21T10:40:34.014Z,1013.22
2018-11-21T10:41:34.041Z,1013.27
2018-11-21T10:42:34.001Z,1013.29
2018-11-21T10:43:33.998Z,1013.33
2018-11-21T10:44:33.987Z,1013.29
2018-11-21T10:45:33.966Z,1013.34
2018-11-21T10:46:33.993Z,1013.22
2018-11-21T10:47:33.942Z,1013.20
2018-11-21T10:48:33.954Z,1013.22
2018-11-21T10:49:33.927Z,1013.18
2018-11-21T10:50:33.908Z,1013.17
2018-11-21T10:51:33.934Z,1013.15
2018-11-21T10:52:33.889Z,1013.14
2018-11-21T10:53:33.876Z,1013.14
2018-11-21T10:54:34.078Z,1013.15
2018-11-21T10:55:33.934Z,1013.18
2018-11-21T10:56:33.851Z,1013.17
2018-11-21T10:57:33.838Z,1013.12
2018-11-21T10:58:33.855Z,1013.16
2018-11-21T10:59:33.810Z,1013.14
2018-11-21T11:00:33.852Z,1013.15
2018-11-21T11:01:33.802Z,1013.11
2018-11-21T11:02:33.818Z,1013.15
2018-11-21T11:03:33.770Z,1013.07
2018-11-21T11:04:33.763Z,1013.13
2018-11-21T11:05:33.751Z,1013.11
2018-11-21T11:06:33.733Z,1013.01
2018-11-21T11:07:36.233Z,1013.04
2018-11-21T11:08:33.724Z,1013.03
2018-11-21T11:09:33.702Z,1013.05
2018-11-21T11:10:33.689Z,1013.06
2018-11-21T11:11:33.716Z,1013.13
2018-11-21T11:12:33.668Z,1013.09
2018-11-21T11:13:35.373Z,1013.14
2018-11-21T11:14:33.645Z,1013.16
2018-11-21T11:15:33.667Z,1013.23
2018-11-21T11:16:33.676Z,1013.23
2018-11-21T11:17:33.615Z,1013.15
2018-11-21T11:18:33.608Z,1013.22
2018-11-21T11:19:33.592Z,1013.16
2018-11-21T11:20:33.668Z,1013.17
2018-11-21T11:21:33.571Z,1013.22
2018-11-21T11:22:33.598Z,1013.23
2018-11-21T11:23:33.552Z,1013.18
2018-11-21T11:24:33.538Z,1013.24
2018-11-21T11:25:33.525Z,1013.23
2018-11-21T11:26:33.520Z,1013.21
2018-11-21T11:27:33.568Z,1013.23
2018-11-21T11:28:33.512Z,1013.27
2018-11-21T11:29:33.493Z,1013.26
2018-11-21T11:30:33.471Z,1013.31
2018-11-21T11:31:33.466Z,1013.35
2018-11-21T11:32:33.536Z,1013.34
2018-11-21T11:33:33.477Z,1013.37
2018-11-21T11:34:33.432Z,1013.29
2018-11-21T11:35:33.418Z,1013.31
2018-11-21T11:36:33.476Z,1013.32
2018-11-21T11:37:33.395Z,1013.29
2018-11-21T11:38:33.394Z,1013.31
2018-11-21T11:39:34.404Z,1013.29
2018-11-21T11:40:33.361Z,1013.29
2018-11-21T11:41:33.392Z,1013.28
2018-11-21T11:42:33.351Z,1013.17
2018-11-21T11:43:33.347Z,1013.21
2018-11-21T11:44:33.375Z,1013.20
2018-11-21T11:45:33.310Z,1013.24
2018-11-21T11:46:33.334Z,1013.22
2018-11-21T11:47:33.313Z,1013.24
2018-11-21T11:48:33.274Z,1013.26
2018-11-21T11:49:33.268Z,1013.23
2018-11-21T11:50:33.257Z,1013.21
2018-11-21T11:51:33.244Z,1013.20
2018-11-21T11:52:33.272Z,1013.24
2018-11-21T11:53:33.221Z,1013.29
2018-11-21T11:54:33.210Z,1013.22
2018-11-21T11:55:33.202Z,1013.25
2018-11-21T11:56:33.243Z,1013.25
2018-11-21T11:57:33.191Z,1013.28
2018-11-21T11:58:33.173Z,1013.24
2018-11-21T11:59:33.171Z,1013.29
2018-11-21T12:00:33.177Z,1013.32
2018-11-21T12:01:33.170Z,1013.32
2018-11-21T12:02:33.125Z,1013.33
2018-11-21T12:03:33.112Z,1013.35
2018-11-21T12:04:33.110Z,1013.34
2018-11-21T12:05:33.137Z,1013.31